Orion Explorer — LNDT — position and weather

sailwx.info

Track history (hours):
 
Tides and Currents Weather Stations Pressure Air Temp Water Temp Dewpoint Dewpoint Depression Visibility Wind Speed Wind Dir Waves Ship Positions

Orion Explorer

Last reported at 2018-May-21 01:00 UTC. Time now 2018-May-21 01:05 UTC.
Position N 68°05' E 014°51'.

Length 59 m; draft 4.5 m.

Type: Cargo ship. MMSI: 259496000.

Date/timePositionNaut miles runAvg speedWind from/ knotsBaromVisibWave heightAir tempDewpointWater temp
2018-May-21 01:00N 68°05' E 014°51'4 9.2
2018-May-21 00:31N 68°09' E 014°53'5 9.2
2018-May-21 00:00N 68°14' E 014°56'510.1
2018-May-20 23:30N 68°19' E 014°58'510.3
2018-May-20 22:59N 68°23' E 015°05'511.2
2018-May-20 22:30N 68°28' E 015°12'5 9.6
2018-May-20 22:00N 68°32' E 015°06'4 7.7
2018-May-20 21:31N 68°34' E 014°57'0 0.0
2018-May-20 21:00N 68°34' E 014°57'0 0.1
2018-May-20 20:29N 68°35' E 014°57'5 9.4
2018-May-20 19:59N 68°36' E 015°10'510.1
2018-May-20 19:30N 68°38' E 015°21'5 9.7
2018-May-20 19:00N 68°43' E 015°25'5 9.8
2018-May-20 18:31N 68°48' E 015°24'2 3.4
2018-May-20 18:00N 68°49' E 015°24'3 6.1
2018-May-20 17:30N 68°52' E 015°30'510.3
2018-May-20 17:01N 68°56' E 015°36'3 6.3
2018-May-20 16:30N 68°58' E 015°42'5 9.7
2018-May-20 16:00N 68°59' E 015°55'510.6
2018-May-20 15:31N 68°60' E 016°10'510.3
2018-May-20 15:00N 68°59' E 016°24'5 9.6
2018-May-20 14:30N 68°59' E 016°38'510.0
2018-May-20 14:00N 68°59' E 016°52'5 9.7
2018-May-20 13:30N 68°60' E 017°05'4 8.4
2018-May-20 12:59N 69°01' E 017°16'5 9.0
2018-May-20 12:29N 69°05' E 017°23'4 9.1
2018-May-20 12:00N 69°07' E 017°34'5 9.8
2018-May-20 11:31N 69°09' E 017°46'5 9.9
2018-May-20 11:00N 69°11' E 017°59'4 8.4
2018-May-20 10:30N 69°15' E 017°59'0 0.9
2018-May-20 10:00N 69°15' E 017°59'0 0.0
2018-May-20 09:30N 69°15' E 017°59'0 0.0
2018-May-20 09:00N 69°15' E 017°59'0 0.0
2018-May-20 08:30N 69°15' E 017°59'1 1.8
2018-May-20 08:00N 69°15' E 017°59'4 8.9
2018-May-20 07:30N 69°20' E 018°02'3 5.7
2018-May-20 07:00N 69°22' E 018°05'5 9.6
2018-May-20 06:28N 69°27' E 018°07'510.2
2018-May-20 06:00N 69°30' E 018°18'510.8
2018-May-20 05:30N 69°32' E 018°33'611.4
2018-May-20 05:00N 69°34' E 018°48'510.6
2018-May-20 04:30N 69°38' E 018°57'4 8.8
2018-May-20 04:01N 69°42' E 019°04'0 0.0
2018-May-20 03:29N 69°42' E 019°04'3 5.7
2018-May-20 03:00N 69°45' E 019°06'510.1
2018-May-20 02:31N 69°47' E 019°18'510.3
2018-May-20 02:01N 69°49' E 019°32'510.4
2018-May-20 01:31N 69°51' E 019°46'510.8
2018-May-20 01:00N 69°54' E 019°58'510.0
2018-May-20 00:30N 69°58' E 020°10'5 9.1
2018-May-20 00:00N 69°60' E 020°22'5 9.6
2018-May-19 23:30N 70°01' E 020°35'5 9.9
2018-May-19 23:00N 70°03' E 020°49'510.0
2018-May-19 22:30N 70°07' E 020°59'510.8
2018-May-19 22:00N 70°11' E 021°05'5 9.9
2018-May-19 21:30N 70°15' E 021°14'5 9.7
2018-May-19 21:00N 70°18' E 021°25'510.1
2018-May-19 20:30N 70°22' E 021°35'4 8.3
2018-May-19 20:00N 70°24' E 021°46'4 7.5
2018-May-19 19:30N 70°25' E 021°57'3 6.7
2018-May-19 19:00N 70°26' E 022°07'3 6.9
2018-May-19 18:30N 70°27' E 022°17'4 7.5
2018-May-19 18:00N 70°28' E 022°27'4 8.2
2018-May-19 17:29N 70°29' E 022°39'4 8.6
2018-May-19 17:00N 70°30' E 022°51'4 8.3
2018-May-19 16:30N 70°32' E 023°02'4 8.7
2018-May-19 16:00N 70°36' E 023°11'5 9.3
2018-May-19 15:30N 70°39' E 023°21'5 9.2
2018-May-19 15:01N 70°42' E 023°30'5 9.4
2018-May-19 14:30N 70°46' E 023°40'5 9.4
2018-May-19 14:00N 70°49' E 023°51'5 9.5
2018-May-19 13:29N 70°52' E 024°02'5 9.6
2018-May-19 13:00N 70°55' E 024°12'510.3
2018-May-19 12:30N 70°59' E 024°23'5 9.7
2018-May-19 12:01N 71°02' E 024°35'510.7
2018-May-19 11:30N 71°00' E 024°51'510.9
2018-May-19 11:00N 70°59' E 025°08'510.2
2018-May-19 10:31N 70°59' E 025°23'611.5
2018-May-19 10:00N 70°56' E 025°39'510.6
2018-May-19 09:30N 70°57' E 025°55'510.6
2018-May-19 09:00N 70°59' E 026°10'510.6
2018-May-19 08:30N 71°01' E 026°25'510.7
2018-May-19 07:59N 71°02' E 026°41'510.5
2018-May-19 07:29N 71°04' E 026°56'510.0
2018-May-19 07:00N 71°06' E 027°11'5 9.7
2018-May-19 06:30N 71°07' E 027°25'5 9.3
2018-May-19 05:59N 71°09' E 027°39'5 9.1
2018-May-19 05:29N 71°08' E 027°53'5 9.4
2018-May-19 05:00N 71°08' E 028°07'4 8.5
2018-May-19 04:30N 71°06' E 028°19'5 9.6
2018-May-19 04:00N 71°04' E 028°31'5 9.2
2018-May-19 03:28N 71°01' E 028°44'5 9.9
2018-May-19 03:00N 70°59' E 028°56'5 9.2
2018-May-19 02:30N 70°56' E 029°08'5 9.2
2018-May-19 02:00N 70°53' E 029°20'5 9.4
2018-May-19 01:29N 70°51' E 029°32'5 9.7
2018-May-19 01:00N 70°48' E 029°44'5 9.5
2018-May-19 00:30N 70°46' E 029°56'510.0
2018-May-19 00:00N 70°43' E 030°09'511.0
2018-May-18 23:30N 70°39' E 030°22'611.4
2018-May-18 23:00N 70°35' E 030°34'611.6
2018-May-18 22:30N 70°31' E 030°46'611.4
2018-May-18 22:00N 70°27' E 030°58'611.4
2018-May-18 21:30N 70°22' E 031°04'510.6
2018-May-18 21:00N 70°17' E 031°04'510.5
2018-May-18 20:30N 70°13' E 030°52'510.4
2018-May-18 20:00N 70°10' E 030°40'510.5
2018-May-18 19:29N 70°07' E 030°27'510.4
2018-May-18 19:00N 70°04' E 030°15'510.5
2018-May-18 18:30N 70°03' E 029°60'510.5
2018-May-18 18:00N 70°02' E 029°45'510.7
2018-May-18 17:30N 70°03' E 029°29'711.0
2018-May-18 16:53N 70°04' E 029°09'3 5.3
2018-May-18 16:23N 70°04' E 029°02'0 0.0
2018-May-18 15:54N 70°04' E 029°02'0 0.0
2018-May-18 15:24N 70°04' E 029°02'0 0.0
2018-May-18 14:51N 70°04' E 029°02'2 3.0
2018-May-18 14:18N 70°04' E 029°06'310.6
2018-May-18 14:00N 70°03' E 029°16'610.6
2018-May-18 13:28N 70°01' E 029°30'510.5
2018-May-18 13:00N 69°59' E 029°43'510.0
2018-May-18 12:29N 69°55' E 029°32'1 2.2
2018-May-18 12:00N 69°55' E 029°29'4 7.8
2018-May-18 11:29N 69°57' E 029°40'510.6
2018-May-18 11:00N 69°59' E 029°53'510.6
2018-May-18 10:30N 70°02' E 030°06'510.9
2018-May-18 10:00N 70°05' E 030°19'510.5
2018-May-18 09:29N 70°08' E 030°32'610.9
2018-May-18 08:59N 70°12' E 030°45'510.8
2018-May-18 08:30N 70°15' E 030°57'5 9.9
2018-May-18 07:59N 70°19' E 031°05'510.5
2018-May-18 07:30N 70°24' E 031°02'510.7
2018-May-18 07:00N 70°29' E 030°54'611.4
2018-May-18 06:30N 70°33' E 030°43'611.5
2018-May-18 06:00N 70°37' E 030°31'611.9
2018-May-18 05:30N 70°41' E 030°18'612.1
2018-May-18 05:00N 70°45' E 030°03'611.6
2018-May-18 04:30N 70°48' E 029°48'611.6
2018-May-18 04:00N 70°51' E 029°33'611.8
2018-May-18 03:30N 70°54' E 029°19'612.0
2018-May-18 02:58N 70°58' E 029°03'511.7
2018-May-18 02:30N 71°01' E 028°48'611.4
2018-May-18 02:00N 71°04' E 028°33'611.1
2018-May-18 01:29N 71°06' E 028°18'511.1
2018-May-18 01:00N 71°08' E 028°02'510.6
2018-May-18 00:29N 71°09' E 027°45'510.3
2018-May-18 00:00N 71°08' E 027°30'510.2
2018-May-17 23:30N 71°06' E 027°15'510.9
2018-May-17 23:00N 71°04' E 026°59'611.1
2018-May-17 22:29N 71°02' E 026°43'510.6
2018-May-17 22:00N 71°01' E 026°28'510.6
2018-May-17 21:30N 70°59' E 026°12'510.5
2018-May-17 21:00N 70°57' E 025°57'510.7
2018-May-17 20:30N 70°55' E 025°42'3 6.0
2018-May-17 20:00N 70°54' E 025°34'2 3.8
2018-May-17 19:30N 70°55' E 025°33'4 7.3
2018-May-17 18:58N 70°58' E 025°24'5 9.7
2018-May-17 18:30N 70°59' E 025°11'510.5
2018-May-17 18:00N 70°60' E 024°55'510.7
2018-May-17 17:30N 71°01' E 024°39'4 6.9
2018-May-17 17:00N 70°59' E 024°31'511.1
2018-May-17 16:30N 70°53' E 024°31'4 7.6
2018-May-17 16:00N 70°50' E 024°27'0 0.0
2018-May-17 15:30N 70°50' E 024°27'0 0.0
2018-May-17 15:00N 70°50' E 024°27'0 0.0
2018-May-17 14:30N 70°50' E 024°27'3 6.1
2018-May-17 13:59N 70°53' E 024°24'510.7
2018-May-17 13:30N 70°51' E 024°10'510.8
2018-May-17 13:00N 70°48' E 023°55'510.8
2018-May-17 12:30N 70°45' E 023°41'510.6
2018-May-17 12:00N 70°41' E 023°34'3 6.6
2018-May-17 11:29N 70°38' E 023°40'3 6.3
2018-May-17 11:00N 70°35' E 023°36'510.7
2018-May-17 10:30N 70°30' E 023°40'5 9.7
2018-May-17 10:00N 70°25' E 023°37'5 9.9
2018-May-17 09:30N 70°21' E 023°29'510.5
2018-May-17 09:00N 70°17' E 023°19'3 5.5
2018-May-17 08:30N 70°14' E 023°17'0 0.0
2018-May-17 08:00N 70°14' E 023°17'0 0.0
2018-May-17 07:30N 70°14' E 023°17'0 0.0
2018-May-17 07:00N 70°14' E 023°17'1 2.1
2018-May-17 06:30N 70°14' E 023°20'0 0.2
2018-May-17 06:00N 70°14' E 023°20'5 9.5
2018-May-17 05:30N 70°14' E 023°06'4 8.7
2018-May-17 05:00N 70°15' E 022°54'0 0.0
2018-May-17 04:30N 70°15' E 022°54'0 0.0
2018-May-17 04:00N 70°15' E 022°54'4 7.8
2018-May-17 03:30N 70°14' E 022°43'510.8
2018-May-17 03:00N 70°16' E 022°27'611.1
2018-May-17 02:30N 70°19' E 022°13'611.1
2018-May-17 01:59N 70°21' E 021°58'611.1
2018-May-17 01:30N 70°24' E 021°43'510.7
2018-May-17 01:00N 70°20' E 021°31'511.0
2018-May-17 00:30N 70°17' E 021°20'5 9.8
2018-May-16 23:59N 70°13' E 021°09'510.4
2018-May-16 23:30N 70°08' E 021°08'510.3
2018-May-16 23:00N 70°03' E 021°07'510.1
2018-May-16 22:29N 69°58' E 021°01'510.8
2018-May-16 22:00N 69°55' E 020°49'5 9.3
2018-May-16 21:29N 69°50' E 020°45'1 2.6
2018-May-16 21:00N 69°49' E 020°43'2 2.7
2018-May-16 20:26N 69°48' E 020°39'1 1.7
2018-May-16 19:39N 69°47' E 020°36'2 9.2
2018-May-16 19:30N 69°47' E 020°32'510.0
2018-May-16 19:00N 69°52' E 020°27'510.4
2018-May-16 18:30N 69°57' E 020°22'510.0
2018-May-16 18:00N 69°60' E 020°10'510.5
2018-May-16 17:30N 70°02' E 019°56'510.0
2018-May-16 17:00N 70°03' E 019°42'510.1
2018-May-16 16:30N 70°05' E 019°28'510.0
2018-May-16 16:00N 70°06' E 019°14'5 9.7
2018-May-16 15:28N 70°04' E 018°60'4 8.3
2018-May-16 14:59N 70°02' E 018°50'4 8.6
2018-May-16 14:29N 69°58' E 018°42'510.2
2018-May-16 13:59N 69°55' E 018°31'1 2.6
2018-May-16 13:30N 69°54' E 018°29'0 0.0
2018-May-16 12:58N 69°54' E 018°29'2 3.6
2018-May-16 12:30N 69°53' E 018°25'5 9.9
2018-May-16 12:00N 69°50' E 018°13'510.0
2018-May-16 11:30N 69°45' E 018°10'510.3
2018-May-16 11:00N 69°41' E 018°01'510.0
2018-May-16 10:30N 69°38' E 017°51'611.0
2018-May-16 09:59N 69°33' E 017°59'5 9.4
2018-May-16 09:30N 69°28' E 018°04'0 0.1
2018-May-16 09:00N 69°28' E 018°04'2 3.1
2018-May-16 08:29N 69°27' E 018°06'1 3.0
2018-May-16 08:00N 69°26' E 018°09'2 4.6
2018-May-16 07:30N 69°24' E 018°06'5 9.3
2018-May-16 06:59N 69°20' E 018°01'5 9.7
2018-May-16 06:30N 69°15' E 017°58'4 8.7
2018-May-16 06:00N 69°11' E 017°60'5 9.8
2018-May-16 05:30N 69°09' E 017°47'3 5.2
2018-May-16 05:00N 69°09' E 017°39'0 0.0
2018-May-16 04:30N 69°09' E 017°39'3 6.0
2018-May-16 04:00N 69°07' E 017°33'510.0
2018-May-16 03:30N 69°04' E 017°21'510.6
2018-May-16 03:00N 68°60' E 017°14'510.6
2018-May-16 02:30N 68°55' E 017°04'510.8
2018-May-16 01:59N 68°51' E 016°57'510.3
2018-May-16 01:30N 68°46' E 016°51'3 5.6
2018-May-16 01:00N 68°43' E 016°54'0 0.8
2018-May-16 00:30N 68°44' E 016°54'0 0.2
2018-May-16 00:00N 68°44' E 016°54'3 6.4
2018-May-15 23:30N 68°45' E 016°47'510.2
2018-May-15 23:00N 68°51' E 016°46'510.2
2018-May-15 22:30N 68°56' E 016°43'1 1.1
2018-May-15 22:00N 68°56' E 016°43'3 5.4
2018-May-15 21:30N 68°54' E 016°40'4 8.9
2018-May-15 21:00N 68°53' E 016°28'510.3
2018-May-15 20:28N 68°56' E 016°16'510.0
2018-May-15 19:58N 68°58' E 016°03'5 9.8
2018-May-15 19:30N 68°59' E 015°50'5 9.2
2018-May-15 19:00N 68°58' E 015°38'5 9.8
2018-May-15 18:30N 68°53' E 015°32'5 9.9
2018-May-15 18:00N 68°49' E 015°26'5 9.9
2018-May-15 17:30N 68°44' E 015°26'4 8.8
2018-May-15 17:00N 68°39' E 015°23'510.3
2018-May-15 16:30N 68°36' E 015°12'510.0
2018-May-15 16:00N 68°34' E 014°60'1 1.9
2018-May-15 15:30N 68°34' E 014°57'0 0.0
2018-May-15 15:00N 68°34' E 014°57'0 0.0
2018-May-15 14:30N 68°34' E 014°57'0 0.0
2018-May-15 13:59N 68°34' E 014°57'0 0.0
2018-May-15 13:30N 68°34' E 014°57'0 0.0
2018-May-15 13:00N 68°34' E 014°57'0 0.0
2018-May-15 12:30N 68°34' E 014°57'0 0.0
2018-May-15 12:00N 68°34' E 014°57'0 0.0
2018-May-15 11:30N 68°34' E 014°57'0 0.0
2018-May-15 10:59N 68°34' E 014°57'0 0.0
2018-May-15 10:30N 68°34' E 014°57'0 0.0
2018-May-15 10:00N 68°34' E 014°57'0 0.0
2018-May-15 09:30N 68°34' E 014°57'0 0.0
2018-May-15 09:00N 68°34' E 014°57'0 0.0
2018-May-15 08:29N 68°34' E 014°57'0 0.0
2018-May-15 08:00N 68°34' E 014°57'0 0.0
2018-May-15 07:29N 68°34' E 014°57'0 0.0
2018-May-15 06:59N 68°34' E 014°57'0 0.0
2018-May-15 06:30N 68°34' E 014°57'0 0.0
2018-May-15 06:00N 68°34' E 014°57'0 0.0
2018-May-15 05:30N 68°34' E 014°57'0 0.0
2018-May-15 05:00N 68°34' E 014°57'0 0.0
2018-May-15 04:30N 68°34' E 014°57'0 0.0
2018-May-15 04:00N 68°34' E 014°57'0 0.0
2018-May-15 03:30N 68°34' E 014°57'0 0.0
2018-May-15 03:00N 68°34' E 014°57'0 0.0
2018-May-15 02:30N 68°34' E 014°57'0 0.0
2018-May-15 01:58N 68°34' E 014°57'0 0.0
2018-May-15 01:29N 68°34' E 014°57'0 0.0
2018-May-15 01:00N 68°34' E 014°57'0 0.0
2018-May-15 00:30N 68°34' E 014°57'0 0.0
2018-May-15 00:00N 68°34' E 014°57'0 0.0
2018-May-14 23:29N 68°34' E 014°57'0 0.0
2018-May-14 23:00N 68°34' E 014°57'0 0.0
2018-May-14 22:30N 68°34' E 014°57'0 0.0
2018-May-14 22:00N 68°34' E 014°57'0 0.0
2018-May-14 21:30N 68°34' E 014°57'0 0.0
2018-May-14 20:59N 68°34' E 014°57'0 0.0
2018-May-14 20:28N 68°34' E 014°57'0 0.0
2018-May-14 20:00N 68°34' E 014°57'0 0.0
2018-May-14 19:29N 68°34' E 014°57'0 0.1
2018-May-14 19:00N 68°35' E 014°57'0 0.0
2018-May-14 18:30N 68°35' E 014°57'0 0.0
2018-May-14 18:00N 68°35' E 014°57'0 0.0
2018-May-14 17:30N 68°35' E 014°57'0 0.0
2018-May-14 17:00N 68°35' E 014°57'0 0.0
2018-May-14 16:30N 68°35' E 014°57'0 0.0
2018-May-14 16:00N 68°35' E 014°57'0 0.0
2018-May-14 15:30N 68°35' E 014°57'0 0.0
2018-May-14 15:00N 68°35' E 014°57'0 0.0
2018-May-14 14:30N 68°35' E 014°57'0 0.0
2018-May-14 14:00N 68°35' E 014°57'0 0.0
2018-May-14 13:30N 68°35' E 014°57'0 0.0
2018-May-14 13:00N 68°35' E 014°57'0 0.0
2018-May-14 12:30N 68°35' E 014°57'0 0.0
2018-May-14 12:00N 68°35' E 014°57'0 0.0
2018-May-14 11:29N 68°35' E 014°57'0 0.0
2018-May-14 11:00N 68°35' E 014°57'0 0.0
2018-May-14 10:30N 68°35' E 014°57'0 0.0
2018-May-14 10:00N 68°35' E 014°57'0 0.0
2018-May-14 09:30N 68°35' E 014°57'0 0.0
2018-May-14 09:00N 68°35' E 014°57'0 0.0
2018-May-14 08:30N 68°35' E 014°57'1 1.2
2018-May-14 08:00N 68°35' E 014°55'5 9.6
2018-May-14 07:30N 68°35' E 014°42'0 0.2
2018-May-14 07:00N 68°35' E 014°42'5 9.8
2018-May-14 06:30N 68°35' E 014°56'0 0.9
2018-May-14 06:00N 68°35' E 014°57'0 0.0
2018-May-14 05:30N 68°35' E 014°57'3 6.4
2018-May-14 05:00N 68°35' E 015°06'510.7
2018-May-14 04:30N 68°38' E 015°18'510.2
2018-May-14 03:59N 68°42' E 015°26'510.1
2018-May-14 03:30N 68°47' E 015°25'510.7
2018-May-14 02:59N 68°52' E 015°31'510.8
2018-May-14 02:29N 68°57' E 015°36'3 7.1
2018-May-14 02:00N 68°59' E 015°45'510.3
2018-May-14 01:30N 68°59' E 015°59'510.4
2018-May-14 01:00N 68°60' E 016°13'510.2
2018-May-14 00:30N 68°59' E 016°27'510.4
2018-May-14 00:00N 68°59' E 016°41'611.1
2018-May-13 23:30N 68°59' E 016°57'511.0
2018-May-13 23:00N 69°00' E 017°12'510.2
2018-May-13 22:30N 69°04' E 017°21'510.2
2018-May-13 22:00N 69°07' E 017°33'510.9
2018-May-13 21:30N 69°09' E 017°47'510.6
2018-May-13 21:00N 69°11' E 018°01'5 9.8
2018-May-13 20:30N 69°16' E 017°58'5 9.9
2018-May-13 20:00N 69°21' E 018°04'510.2
2018-May-13 19:30N 69°26' E 018°07'5 9.3
2018-May-13 19:00N 69°30' E 018°14'510.7
2018-May-13 18:29N 69°32' E 018°28'510.3
2018-May-13 18:00N 69°33' E 018°42'5 9.2
2018-May-13 17:30N 69°36' E 018°53'3 6.3
2018-May-13 17:00N 69°39' E 018°57'0 0.0
2018-May-13 16:30N 69°39' E 018°57'0 0.0
2018-May-13 16:00N 69°39' E 018°57'0 0.0
2018-May-13 15:30N 69°39' E 018°58'0 0.0
2018-May-13 15:00N 69°39' E 018°57'0 0.0
2018-May-13 14:29N 69°39' E 018°57'0 0.0
2018-May-13 14:00N 69°39' E 018°57'0 0.0
2018-May-13 13:30N 69°39' E 018°57'0 0.0
2018-May-13 13:00N 69°39' E 018°57'0 0.0
2018-May-13 12:30N 69°39' E 018°58'0 0.0
2018-May-13 12:00N 69°39' E 018°57'0 0.0
2018-May-13 11:30N 69°39' E 018°57'0 0.0
2018-May-13 11:00N 69°39' E 018°57'0 0.0
2018-May-13 10:30N 69°39' E 018°58'0 0.0
2018-May-13 10:00N 69°39' E 018°58'0 0.0
2018-May-13 09:30N 69°39' E 018°57'0 0.0
2018-May-13 09:00N 69°39' E 018°57'0 0.0
2018-May-13 08:30N 69°39' E 018°58'0 0.0
2018-May-13 08:00N 69°39' E 018°57'0 0.0
2018-May-13 07:30N 69°39' E 018°57'0 0.0
2018-May-13 07:00N 69°39' E 018°57'0 0.0
2018-May-13 06:30N 69°39' E 018°58'0 0.0
2018-May-13 06:00N 69°39' E 018°57'0 0.0
2018-May-13 05:30N 69°39' E 018°57'0 0.0
2018-May-13 04:59N 69°39' E 018°57'0 0.0
2018-May-13 04:30N 69°39' E 018°57'0 0.0
2018-May-13 03:59N 69°39' E 018°58'0 0.0
2018-May-13 03:30N 69°39' E 018°57'0 0.0
2018-May-13 03:00N 69°39' E 018°57'0 0.0
2018-May-13 02:30N 69°39' E 018°58'0 0.0
2018-May-13 01:59N 69°39' E 018°57'0 0.0
2018-May-13 01:30N 69°39' E 018°57'0 0.0
2018-May-13 01:00N 69°39' E 018°57'0 0.0
2018-May-13 00:30N 69°39' E 018°57'0 0.0
2018-May-13 00:00N 69°39' E 018°58'0 0.0
2018-May-12 23:30N 69°39' E 018°58'0 0.0
2018-May-12 23:00N 69°39' E 018°58'0 0.0
2018-May-12 22:30N 69°39' E 018°57'0 0.0
2018-May-12 22:00N 69°39' E 018°58'0 0.0
2018-May-12 21:30N 69°39' E 018°58'0 0.0
2018-May-12 21:00N 69°39' E 018°58'0 0.0
2018-May-12 20:30N 69°39' E 018°57'0 0.0
2018-May-12 20:00N 69°39' E 018°58'0 0.0
2018-May-12 19:30N 69°39' E 018°57'0 0.0
2018-May-12 19:00N 69°39' E 018°57'0 0.0
2018-May-12 18:30N 69°39' E 018°57'0 0.0
2018-May-12 18:00N 69°39' E 018°58'0 0.0
2018-May-12 17:30N 69°39' E 018°57'0 0.0
2018-May-12 17:00N 69°39' E 018°58'0 0.0
2018-May-12 16:30N 69°39' E 018°57'0 0.0
2018-May-12 16:00N 69°39' E 018°58'0 0.0
2018-May-12 15:30N 69°39' E 018°58'0 0.0
2018-May-12 15:00N 69°39' E 018°58'0 0.0
2018-May-12 14:30N 69°39' E 018°57'0 0.0
2018-May-12 14:00N 69°39' E 018°57'0 0.0
2018-May-12 13:30N 69°39' E 018°57'0 0.0
2018-May-12 13:00N 69°39' E 018°58'0 0.0
2018-May-12 12:28N 69°39' E 018°57'0 0.0
2018-May-12 12:00N 69°39' E 018°57'0 0.0
2018-May-12 11:30N 69°39' E 018°57'0 0.0
2018-May-12 11:00N 69°39' E 018°57'0 0.0
2018-May-12 10:29N 69°39' E 018°57'0 0.0
2018-May-12 10:00N 69°39' E 018°58'0 0.0
2018-May-12 09:28N 69°39' E 018°58'0 0.0
2018-May-12 09:00N 69°39' E 018°57'0 0.0
2018-May-12 08:30N 69°39' E 018°58'0 0.0
2018-May-12 08:00N 69°39' E 018°58'0 0.0
2018-May-12 07:30N 69°39' E 018°57'0 0.0
2018-May-12 07:00N 69°39' E 018°58'0 0.0
2018-May-12 06:30N 69°39' E 018°58'0 0.0
2018-May-12 06:00N 69°39' E 018°58'0 0.0
2018-May-12 05:30N 69°39' E 018°57'0 0.0
2018-May-12 05:00N 69°39' E 018°58'0 0.0
2018-May-12 04:30N 69°39' E 018°57'0 0.0
2018-May-12 04:00N 69°39' E 018°58'0 0.0
2018-May-12 03:30N 69°39' E 018°57'0 0.0
2018-May-12 02:59N 69°39' E 018°58'0 0.0
2018-May-12 02:30N 69°39' E 018°57'0 0.0
2018-May-12 02:00N 69°39' E 018°57'0 0.0
2018-May-12 01:30N 69°39' E 018°57'0 0.0
2018-May-12 01:00N 69°39' E 018°57'0 0.0
2018-May-12 00:30N 69°39' E 018°57'0 0.0
2018-May-11 23:58N 69°39' E 018°58'0 0.0
2018-May-11 23:30N 69°39' E 018°57'0 0.0
2018-May-11 23:00N 69°39' E 018°57'0 0.0
2018-May-11 22:30N 69°39' E 018°57'0 0.0
2018-May-11 22:00N 69°39' E 018°58'0 0.0
2018-May-11 21:28N 69°39' E 018°58'0 0.0
2018-May-11 21:00N 69°39' E 018°57'0 0.0
2018-May-11 20:30N 69°39' E 018°57'0 0.0
2018-May-11 20:00N 69°39' E 018°58'0 0.0
2018-May-11 19:30N 69°39' E 018°57'0 0.0
2018-May-11 19:00N 69°39' E 018°57'0 0.0
2018-May-11 18:30N 69°39' E 018°57'0 0.0
2018-May-11 18:00N 69°39' E 018°57'0 0.0
2018-May-11 17:30N 69°39' E 018°57'0 0.0
2018-May-11 17:00N 69°39' E 018°57'0 0.0
2018-May-11 16:30N 69°39' E 018°57'0 0.0
2018-May-11 16:00N 69°39' E 018°57'0 0.0
2018-May-11 15:30N 69°39' E 018°58'0 0.0
2018-May-11 15:00N 69°39' E 018°57'0 0.0
2018-May-11 14:30N 69°39' E 018°58'0 0.0
2018-May-11 14:00N 69°39' E 018°58'0 0.0
2018-May-11 13:30N 69°39' E 018°58'0 0.0
2018-May-11 13:00N 69°39' E 018°58'0 0.0
2018-May-11 12:30N 69°39' E 018°58'0 0.0
2018-May-11 11:58N 69°39' E 018°57'0 0.0
2018-May-11 11:30N 69°39' E 018°57'0 0.0
2018-May-11 11:00N 69°39' E 018°57'0 0.0
2018-May-11 10:30N 69°39' E 018°57'0 0.0
2018-May-11 09:59N 69°39' E 018°58'0 0.0
2018-May-11 09:30N 69°39' E 018°57'0 0.0
2018-May-11 09:00N 69°39' E 018°57'0 0.0
2018-May-11 08:26N 69°39' E 018°57'0 0.0
2018-May-11 08:00N 69°39' E 018°57'3 5.5
2018-May-11 07:30N 69°41' E 019°02'1 2.4
2018-May-11 07:00N 69°42' E 019°04'0 0.0
2018-May-11 06:30N 69°42' E 019°04'1 2.4
2018-May-11 06:00N 69°43' E 019°05'4 7.4
2018-May-11 05:29N 69°46' E 019°12'4 8.1
2018-May-11 05:00N 69°48' E 019°22'4 8.2
2018-May-11 04:29N 69°49' E 019°33'4 8.4
2018-May-11 03:59N 69°51' E 019°44'4 8.2
2018-May-11 03:30N 69°53' E 019°53'4 7.8
2018-May-11 03:00N 69°56' E 020°02'4 8.0
2018-May-11 02:30N 69°58' E 020°11'4 7.9
2018-May-11 01:59N 70°00' E 020°22'4 7.8
2018-May-11 01:30N 70°01' E 020°33'4 7.5
2018-May-11 01:00N 70°02' E 020°43'  
Track history (hours):
 
Tides and Currents Weather Stations Pressure Air Temp Water Temp Dewpoint Dewpoint Depression Visibility Wind Speed Wind Dir Waves Ship Positions

Orion Explorer

Last reported at 2018-May-21 01:00 UTC. Time now 2018-May-21 01:05 UTC.
Position N 68°05' E 014°51'.

Length 59 m; draft 4.5 m.

Type: Cargo ship. MMSI: 259496000.

Date/timePositionNaut miles runAvg speedWind from/ knotsBaromVisibWave heightAir tempDewpointWater temp
2018-May-21 01:00N 68°05' E 014°51'4 9.2
2018-May-21 00:31N 68°09' E 014°53'5 9.2
2018-May-21 00:00N 68°14' E 014°56'510.1
2018-May-20 23:30N 68°19' E 014°58'510.3
2018-May-20 22:59N 68°23' E 015°05'511.2
2018-May-20 22:30N 68°28' E 015°12'5 9.6
2018-May-20 22:00N 68°32' E 015°06'4 7.7
2018-May-20 21:31N 68°34' E 014°57'0 0.0
2018-May-20 21:00N 68°34' E 014°57'0 0.1
2018-May-20 20:29N 68°35' E 014°57'5 9.4
2018-May-20 19:59N 68°36' E 015°10'510.1
2018-May-20 19:30N 68°38' E 015°21'5 9.7
2018-May-20 19:00N 68°43' E 015°25'5 9.8
2018-May-20 18:31N 68°48' E 015°24'2 3.4
2018-May-20 18:00N 68°49' E 015°24'3 6.1
2018-May-20 17:30N 68°52' E 015°30'510.3
2018-May-20 17:01N 68°56' E 015°36'3 6.3
2018-May-20 16:30N 68°58' E 015°42'5 9.7
2018-May-20 16:00N 68°59' E 015°55'510.6
2018-May-20 15:31N 68°60' E 016°10'510.3
2018-May-20 15:00N 68°59' E 016°24'5 9.6
2018-May-20 14:30N 68°59' E 016°38'510.0
2018-May-20 14:00N 68°59' E 016°52'5 9.7
2018-May-20 13:30N 68°60' E 017°05'4 8.4
2018-May-20 12:59N 69°01' E 017°16'5 9.0
2018-May-20 12:29N 69°05' E 017°23'4 9.1
2018-May-20 12:00N 69°07' E 017°34'5 9.8
2018-May-20 11:31N 69°09' E 017°46'5 9.9
2018-May-20 11:00N 69°11' E 017°59'4 8.4
2018-May-20 10:30N 69°15' E 017°59'0 0.9
2018-May-20 10:00N 69°15' E 017°59'0 0.0
2018-May-20 09:30N 69°15' E 017°59'0 0.0
2018-May-20 09:00N 69°15' E 017°59'0 0.0
2018-May-20 08:30N 69°15' E 017°59'1 1.8
2018-May-20 08:00N 69°15' E 017°59'4 8.9
2018-May-20 07:30N 69°20' E 018°02'3 5.7
2018-May-20 07:00N 69°22' E 018°05'5 9.6
2018-May-20 06:28N 69°27' E 018°07'510.2
2018-May-20 06:00N 69°30' E 018°18'510.8
2018-May-20 05:30N 69°32' E 018°33'611.4
2018-May-20 05:00N 69°34' E 018°48'510.6
2018-May-20 04:30N 69°38' E 018°57'4 8.8
2018-May-20 04:01N 69°42' E 019°04'0 0.0
2018-May-20 03:29N 69°42' E 019°04'3 5.7
2018-May-20 03:00N 69°45' E 019°06'510.1
2018-May-20 02:31N 69°47' E 019°18'510.3
2018-May-20 02:01N 69°49' E 019°32'510.4
2018-May-20 01:31N 69°51' E 019°46'510.8
2018-May-20 01:00N 69°54' E 019°58'510.0
2018-May-20 00:30N 69°58' E 020°10'5 9.1
2018-May-20 00:00N 69°60' E 020°22'5 9.6
2018-May-19 23:30N 70°01' E 020°35'5 9.9
2018-May-19 23:00N 70°03' E 020°49'510.0
2018-May-19 22:30N 70°07' E 020°59'510.8
2018-May-19 22:00N 70°11' E 021°05'5 9.9
2018-May-19 21:30N 70°15' E 021°14'5 9.7
2018-May-19 21:00N 70°18' E 021°25'510.1
2018-May-19 20:30N 70°22' E 021°35'4 8.3
2018-May-19 20:00N 70°24' E 021°46'4 7.5
2018-May-19 19:30N 70°25' E 021°57'3 6.7
2018-May-19 19:00N 70°26' E 022°07'3 6.9
2018-May-19 18:30N 70°27' E 022°17'4 7.5
2018-May-19 18:00N 70°28' E 022°27'4 8.2
2018-May-19 17:29N 70°29' E 022°39'4 8.6
2018-May-19 17:00N 70°30' E 022°51'4 8.3
2018-May-19 16:30N 70°32' E 023°02'4 8.7
2018-May-19 16:00N 70°36' E 023°11'5 9.3
2018-May-19 15:30N 70°39' E 023°21'5 9.2
2018-May-19 15:01N 70°42' E 023°30'5 9.4
2018-May-19 14:30N 70°46' E 023°40'5 9.4
2018-May-19 14:00N 70°49' E 023°51'5 9.5
2018-May-19 13:29N 70°52' E 024°02'5 9.6
2018-May-19 13:00N 70°55' E 024°12'510.3
2018-May-19 12:30N 70°59' E 024°23'5 9.7
2018-May-19 12:01N 71°02' E 024°35'510.7
2018-May-19 11:30N 71°00' E 024°51'510.9
2018-May-19 11:00N 70°59' E 025°08'510.2
2018-May-19 10:31N 70°59' E 025°23'611.5
2018-May-19 10:00N 70°56' E 025°39'510.6
2018-May-19 09:30N 70°57' E 025°55'510.6
2018-May-19 09:00N 70°59' E 026°10'510.6
2018-May-19 08:30N 71°01' E 026°25'510.7
2018-May-19 07:59N 71°02' E 026°41'510.5
2018-May-19 07:29N 71°04' E 026°56'510.0
2018-May-19 07:00N 71°06' E 027°11'5 9.7
2018-May-19 06:30N 71°07' E 027°25'5 9.3
2018-May-19 05:59N 71°09' E 027°39'5 9.1
2018-May-19 05:29N 71°08' E 027°53'5 9.4
2018-May-19 05:00N 71°08' E 028°07'4 8.5
2018-May-19 04:30N 71°06' E 028°19'5 9.6
2018-May-19 04:00N 71°04' E 028°31'5 9.2
2018-May-19 03:28N 71°01' E 028°44'5 9.9
2018-May-19 03:00N 70°59' E 028°56'5 9.2
2018-May-19 02:30N 70°56' E 029°08'5 9.2
2018-May-19 02:00N 70°53' E 029°20'5 9.4
2018-May-19 01:29N 70°51' E 029°32'5 9.7
2018-May-19 01:00N 70°48' E 029°44'5 9.5
2018-May-19 00:30N 70°46' E 029°56'510.0
2018-May-19 00:00N 70°43' E 030°09'511.0
2018-May-18 23:30N 70°39' E 030°22'611.4
2018-May-18 23:00N 70°35' E 030°34'611.6
2018-May-18 22:30N 70°31' E 030°46'611.4
2018-May-18 22:00N 70°27' E 030°58'611.4
2018-May-18 21:30N 70°22' E 031°04'510.6
2018-May-18 21:00N 70°17' E 031°04'510.5
2018-May-18 20:30N 70°13' E 030°52'510.4
2018-May-18 20:00N 70°10' E 030°40'510.5
2018-May-18 19:29N 70°07' E 030°27'510.4
2018-May-18 19:00N 70°04' E 030°15'510.5
2018-May-18 18:30N 70°03' E 029°60'510.5
2018-May-18 18:00N 70°02' E 029°45'510.7
2018-May-18 17:30N 70°03' E 029°29'711.0
2018-May-18 16:53N 70°04' E 029°09'3 5.3
2018-May-18 16:23N 70°04' E 029°02'0 0.0
2018-May-18 15:54N 70°04' E 029°02'0 0.0
2018-May-18 15:24N 70°04' E 029°02'0 0.0
2018-May-18 14:51N 70°04' E 029°02'2 3.0
2018-May-18 14:18N 70°04' E 029°06'310.6
2018-May-18 14:00N 70°03' E 029°16'610.6
2018-May-18 13:28N 70°01' E 029°30'510.5
2018-May-18 13:00N 69°59' E 029°43'510.0
2018-May-18 12:29N 69°55' E 029°32'1 2.2
2018-May-18 12:00N 69°55' E 029°29'4 7.8
2018-May-18 11:29N 69°57' E 029°40'510.6
2018-May-18 11:00N 69°59' E 029°53'510.6
2018-May-18 10:30N 70°02' E 030°06'510.9
2018-May-18 10:00N 70°05' E 030°19'510.5
2018-May-18 09:29N 70°08' E 030°32'610.9
2018-May-18 08:59N 70°12' E 030°45'510.8
2018-May-18 08:30N 70°15' E 030°57'5 9.9
2018-May-18 07:59N 70°19' E 031°05'510.5
2018-May-18 07:30N 70°24' E 031°02'510.7
2018-May-18 07:00N 70°29' E 030°54'611.4
2018-May-18 06:30N 70°33' E 030°43'611.5
2018-May-18 06:00N 70°37' E 030°31'611.9
2018-May-18 05:30N 70°41' E 030°18'612.1
2018-May-18 05:00N 70°45' E 030°03'611.6
2018-May-18 04:30N 70°48' E 029°48'611.6
2018-May-18 04:00N 70°51' E 029°33'611.8
2018-May-18 03:30N 70°54' E 029°19'612.0
2018-May-18 02:58N 70°58' E 029°03'511.7
2018-May-18 02:30N 71°01' E 028°48'611.4
2018-May-18 02:00N 71°04' E 028°33'611.1
2018-May-18 01:29N 71°06' E 028°18'511.1
2018-May-18 01:00N 71°08' E 028°02'510.6
2018-May-18 00:29N 71°09' E 027°45'510.3
2018-May-18 00:00N 71°08' E 027°30'510.2
2018-May-17 23:30N 71°06' E 027°15'510.9
2018-May-17 23:00N 71°04' E 026°59'611.1
2018-May-17 22:29N 71°02' E 026°43'510.6
2018-May-17 22:00N 71°01' E 026°28'510.6
2018-May-17 21:30N 70°59' E 026°12'510.5
2018-May-17 21:00N 70°57' E 025°57'510.7
2018-May-17 20:30N 70°55' E 025°42'3 6.0
2018-May-17 20:00N 70°54' E 025°34'2 3.8
2018-May-17 19:30N 70°55' E 025°33'4 7.3
2018-May-17 18:58N 70°58' E 025°24'5 9.7
2018-May-17 18:30N 70°59' E 025°11'510.5
2018-May-17 18:00N 70°60' E 024°55'510.7
2018-May-17 17:30N 71°01' E 024°39'4 6.9
2018-May-17 17:00N 70°59' E 024°31'511.1
2018-May-17 16:30N 70°53' E 024°31'4 7.6
2018-May-17 16:00N 70°50' E 024°27'0 0.0
2018-May-17 15:30N 70°50' E 024°27'0 0.0
2018-May-17 15:00N 70°50' E 024°27'0 0.0
2018-May-17 14:30N 70°50' E 024°27'3 6.1
2018-May-17 13:59N 70°53' E 024°24'510.7
2018-May-17 13:30N 70°51' E 024°10'510.8
2018-May-17 13:00N 70°48' E 023°55'510.8
2018-May-17 12:30N 70°45' E 023°41'510.6
2018-May-17 12:00N 70°41' E 023°34'3 6.6
2018-May-17 11:29N 70°38' E 023°40'3 6.3
2018-May-17 11:00N 70°35' E 023°36'510.7
2018-May-17 10:30N 70°30' E 023°40'5 9.7
2018-May-17 10:00N 70°25' E 023°37'5 9.9
2018-May-17 09:30N 70°21' E 023°29'510.5
2018-May-17 09:00N 70°17' E 023°19'3 5.5
2018-May-17 08:30N 70°14' E 023°17'0 0.0
2018-May-17 08:00N 70°14' E 023°17'0 0.0
2018-May-17 07:30N 70°14' E 023°17'0 0.0
2018-May-17 07:00N 70°14' E 023°17'1 2.1
2018-May-17 06:30N 70°14' E 023°20'0 0.2
2018-May-17 06:00N 70°14' E 023°20'5 9.5
2018-May-17 05:30N 70°14' E 023°06'4 8.7
2018-May-17 05:00N 70°15' E 022°54'0 0.0
2018-May-17 04:30N 70°15' E 022°54'0 0.0
2018-May-17 04:00N 70°15' E 022°54'4 7.8
2018-May-17 03:30N 70°14' E 022°43'510.8
2018-May-17 03:00N 70°16' E 022°27'611.1
2018-May-17 02:30N 70°19' E 022°13'611.1
2018-May-17 01:59N 70°21' E 021°58'611.1
2018-May-17 01:30N 70°24' E 021°43'510.7
2018-May-17 01:00N 70°20' E 021°31'511.0
2018-May-17 00:30N 70°17' E 021°20'5 9.8
2018-May-16 23:59N 70°13' E 021°09'510.4
2018-May-16 23:30N 70°08' E 021°08'510.3
2018-May-16 23:00N 70°03' E 021°07'510.1
2018-May-16 22:29N 69°58' E 021°01'510.8
2018-May-16 22:00N 69°55' E 020°49'5 9.3
2018-May-16 21:29N 69°50' E 020°45'1 2.6
2018-May-16 21:00N 69°49' E 020°43'2 2.7
2018-May-16 20:26N 69°48' E 020°39'1 1.7
2018-May-16 19:39N 69°47' E 020°36'2 9.2
2018-May-16 19:30N 69°47' E 020°32'510.0
2018-May-16 19:00N 69°52' E 020°27'510.4
2018-May-16 18:30N 69°57' E 020°22'510.0
2018-May-16 18:00N 69°60' E 020°10'510.5
2018-May-16 17:30N 70°02' E 019°56'510.0
2018-May-16 17:00N 70°03' E 019°42'510.1
2018-May-16 16:30N 70°05' E 019°28'510.0
2018-May-16 16:00N 70°06' E 019°14'5 9.7
2018-May-16 15:28N 70°04' E 018°60'4 8.3
2018-May-16 14:59N 70°02' E 018°50'4 8.6
2018-May-16 14:29N 69°58' E 018°42'510.2
2018-May-16 13:59N 69°55' E 018°31'1 2.6
2018-May-16 13:30N 69°54' E 018°29'0 0.0
2018-May-16 12:58N 69°54' E 018°29'2 3.6
2018-May-16 12:30N 69°53' E 018°25'5 9.9
2018-May-16 12:00N 69°50' E 018°13'510.0
2018-May-16 11:30N 69°45' E 018°10'510.3
2018-May-16 11:00N 69°41' E 018°01'510.0
2018-May-16 10:30N 69°38' E 017°51'611.0
2018-May-16 09:59N 69°33' E 017°59'5 9.4
2018-May-16 09:30N 69°28' E 018°04'0 0.1
2018-May-16 09:00N 69°28' E 018°04'2 3.1
2018-May-16 08:29N 69°27' E 018°06'1 3.0
2018-May-16 08:00N 69°26' E 018°09'2 4.6
2018-May-16 07:30N 69°24' E 018°06'5 9.3
2018-May-16 06:59N 69°20' E 018°01'5 9.7
2018-May-16 06:30N 69°15' E 017°58'4 8.7
2018-May-16 06:00N 69°11' E 017°60'5 9.8
2018-May-16 05:30N 69°09' E 017°47'3 5.2
2018-May-16 05:00N 69°09' E 017°39'0 0.0
2018-May-16 04:30N 69°09' E 017°39'3 6.0
2018-May-16 04:00N 69°07' E 017°33'510.0
2018-May-16 03:30N 69°04' E 017°21'510.6
2018-May-16 03:00N 68°60' E 017°14'510.6
2018-May-16 02:30N 68°55' E 017°04'510.8
2018-May-16 01:59N 68°51' E 016°57'510.3
2018-May-16 01:30N 68°46' E 016°51'3 5.6
2018-May-16 01:00N 68°43' E 016°54'0 0.8
2018-May-16 00:30N 68°44' E 016°54'0 0.2
2018-May-16 00:00N 68°44' E 016°54'3 6.4
2018-May-15 23:30N 68°45' E 016°47'510.2
2018-May-15 23:00N 68°51' E 016°46'510.2
2018-May-15 22:30N 68°56' E 016°43'1 1.1
2018-May-15 22:00N 68°56' E 016°43'3 5.4
2018-May-15 21:30N 68°54' E 016°40'4 8.9
2018-May-15 21:00N 68°53' E 016°28'510.3
2018-May-15 20:28N 68°56' E 016°16'510.0
2018-May-15 19:58N 68°58' E 016°03'5 9.8
2018-May-15 19:30N 68°59' E 015°50'5 9.2
2018-May-15 19:00N 68°58' E 015°38'5 9.8
2018-May-15 18:30N 68°53' E 015°32'5 9.9
2018-May-15 18:00N 68°49' E 015°26'5 9.9
2018-May-15 17:30N 68°44' E 015°26'4 8.8
2018-May-15 17:00N 68°39' E 015°23'510.3
2018-May-15 16:30N 68°36' E 015°12'510.0
2018-May-15 16:00N 68°34' E 014°60'1 1.9
2018-May-15 15:30N 68°34' E 014°57'0 0.0
2018-May-15 15:00N 68°34' E 014°57'0 0.0
2018-May-15 14:30N 68°34' E 014°57'0 0.0
2018-May-15 13:59N 68°34' E 014°57'0 0.0
2018-May-15 13:30N 68°34' E 014°57'0 0.0
2018-May-15 13:00N 68°34' E 014°57'0 0.0
2018-May-15 12:30N 68°34' E 014°57'0 0.0
2018-May-15 12:00N 68°34' E 014°57'0 0.0
2018-May-15 11:30N 68°34' E 014°57'0 0.0
2018-May-15 10:59N 68°34' E 014°57'0 0.0
2018-May-15 10:30N 68°34' E 014°57'0 0.0
2018-May-15 10:00N 68°34' E 014°57'0 0.0
2018-May-15 09:30N 68°34' E 014°57'0 0.0
2018-May-15 09:00N 68°34' E 014°57'0 0.0
2018-May-15 08:29N 68°34' E 014°57'0 0.0
2018-May-15 08:00N 68°34' E 014°57'0 0.0
2018-May-15 07:29N 68°34' E 014°57'0 0.0
2018-May-15 06:59N 68°34' E 014°57'0 0.0
2018-May-15 06:30N 68°34' E 014°57'0 0.0
2018-May-15 06:00N 68°34' E 014°57'0 0.0
2018-May-15 05:30N 68°34' E 014°57'0 0.0
2018-May-15 05:00N 68°34' E 014°57'0 0.0
2018-May-15 04:30N 68°34' E 014°57'0 0.0
2018-May-15 04:00N 68°34' E 014°57'0 0.0
2018-May-15 03:30N 68°34' E 014°57'0 0.0
2018-May-15 03:00N 68°34' E 014°57'0 0.0
2018-May-15 02:30N 68°34' E 014°57'0 0.0
2018-May-15 01:58N 68°34' E 014°57'0 0.0
2018-May-15 01:29N 68°34' E 014°57'0 0.0
2018-May-15 01:00N 68°34' E 014°57'0 0.0
2018-May-15 00:30N 68°34' E 014°57'0 0.0
2018-May-15 00:00N 68°34' E 014°57'0 0.0
2018-May-14 23:29N 68°34' E 014°57'0 0.0
2018-May-14 23:00N 68°34' E 014°57'0 0.0
2018-May-14 22:30N 68°34' E 014°57'0 0.0
2018-May-14 22:00N 68°34' E 014°57'0 0.0
2018-May-14 21:30N 68°34' E 014°57'0 0.0
2018-May-14 20:59N 68°34' E 014°57'0 0.0
2018-May-14 20:28N 68°34' E 014°57'0 0.0
2018-May-14 20:00N 68°34' E 014°57'0 0.0
2018-May-14 19:29N 68°34' E 014°57'0 0.1
2018-May-14 19:00N 68°35' E 014°57'0 0.0
2018-May-14 18:30N 68°35' E 014°57'0 0.0
2018-May-14 18:00N 68°35' E 014°57'0 0.0
2018-May-14 17:30N 68°35' E 014°57'0 0.0
2018-May-14 17:00N 68°35' E 014°57'0 0.0
2018-May-14 16:30N 68°35' E 014°57'0 0.0
2018-May-14 16:00N 68°35' E 014°57'0 0.0
2018-May-14 15:30N 68°35' E 014°57'0 0.0
2018-May-14 15:00N 68°35' E 014°57'0 0.0
2018-May-14 14:30N 68°35' E 014°57'0 0.0
2018-May-14 14:00N 68°35' E 014°57'0 0.0
2018-May-14 13:30N 68°35' E 014°57'0 0.0
2018-May-14 13:00N 68°35' E 014°57'0 0.0
2018-May-14 12:30N 68°35' E 014°57'0 0.0
2018-May-14 12:00N 68°35' E 014°57'0 0.0
2018-May-14 11:29N 68°35' E 014°57'0 0.0
2018-May-14 11:00N 68°35' E 014°57'0 0.0
2018-May-14 10:30N 68°35' E 014°57'0 0.0
2018-May-14 10:00N 68°35' E 014°57'0 0.0
2018-May-14 09:30N 68°35' E 014°57'0 0.0
2018-May-14 09:00N 68°35' E 014°57'0 0.0
2018-May-14 08:30N 68°35' E 014°57'1 1.2
2018-May-14 08:00N 68°35' E 014°55'5 9.6
2018-May-14 07:30N 68°35' E 014°42'0 0.2
2018-May-14 07:00N 68°35' E 014°42'5 9.8
2018-May-14 06:30N 68°35' E 014°56'0 0.9
2018-May-14 06:00N 68°35' E 014°57'0 0.0
2018-May-14 05:30N 68°35' E 014°57'3 6.4
2018-May-14 05:00N 68°35' E 015°06'510.7
2018-May-14 04:30N 68°38' E 015°18'510.2
2018-May-14 03:59N 68°42' E 015°26'510.1
2018-May-14 03:30N 68°47' E 015°25'510.7
2018-May-14 02:59N 68°52' E 015°31'510.8
2018-May-14 02:29N 68°57' E 015°36'3 7.1
2018-May-14 02:00N 68°59' E 015°45'510.3
2018-May-14 01:30N 68°59' E 015°59'510.4
2018-May-14 01:00N 68°60' E 016°13'510.2
2018-May-14 00:30N 68°59' E 016°27'510.4
2018-May-14 00:00N 68°59' E 016°41'611.1
2018-May-13 23:30N 68°59' E 016°57'511.0
2018-May-13 23:00N 69°00' E 017°12'510.2
2018-May-13 22:30N 69°04' E 017°21'510.2
2018-May-13 22:00N 69°07' E 017°33'510.9
2018-May-13 21:30N 69°09' E 017°47'510.6
2018-May-13 21:00N 69°11' E 018°01'5 9.8
2018-May-13 20:30N 69°16' E 017°58'5 9.9
2018-May-13 20:00N 69°21' E 018°04'510.2
2018-May-13 19:30N 69°26' E 018°07'5 9.3
2018-May-13 19:00N 69°30' E 018°14'510.7
2018-May-13 18:29N 69°32' E 018°28'510.3
2018-May-13 18:00N 69°33' E 018°42'5 9.2
2018-May-13 17:30N 69°36' E 018°53'3 6.3
2018-May-13 17:00N 69°39' E 018°57'0 0.0
2018-May-13 16:30N 69°39' E 018°57'0 0.0
2018-May-13 16:00N 69°39' E 018°57'0 0.0
2018-May-13 15:30N 69°39' E 018°58'0 0.0
2018-May-13 15:00N 69°39' E 018°57'0 0.0
2018-May-13 14:29N 69°39' E 018°57'0 0.0
2018-May-13 14:00N 69°39' E 018°57'0 0.0
2018-May-13 13:30N 69°39' E 018°57'0 0.0
2018-May-13 13:00N 69°39' E 018°57'0 0.0
2018-May-13 12:30N 69°39' E 018°58'0 0.0
2018-May-13 12:00N 69°39' E 018°57'0 0.0
2018-May-13 11:30N 69°39' E 018°57'0 0.0
2018-May-13 11:00N 69°39' E 018°57'0 0.0
2018-May-13 10:30N 69°39' E 018°58'0 0.0
2018-May-13 10:00N 69°39' E 018°58'0 0.0
2018-May-13 09:30N 69°39' E 018°57'0 0.0
2018-May-13 09:00N 69°39' E 018°57'0 0.0
2018-May-13 08:30N 69°39' E 018°58'0 0.0
2018-May-13 08:00N 69°39' E 018°57'0 0.0
2018-May-13 07:30N 69°39' E 018°57'0 0.0
2018-May-13 07:00N 69°39' E 018°57'0 0.0
2018-May-13 06:30N 69°39' E 018°58'0 0.0
2018-May-13 06:00N 69°39' E 018°57'0 0.0
2018-May-13 05:30N 69°39' E 018°57'0 0.0
2018-May-13 04:59N 69°39' E 018°57'0 0.0
2018-May-13 04:30N 69°39' E 018°57'0 0.0
2018-May-13 03:59N 69°39' E 018°58'0 0.0
2018-May-13 03:30N 69°39' E 018°57'0 0.0
2018-May-13 03:00N 69°39' E 018°57'0 0.0
2018-May-13 02:30N 69°39' E 018°58'0 0.0
2018-May-13 01:59N 69°39' E 018°57'0 0.0
2018-May-13 01:30N 69°39' E 018°57'0 0.0
2018-May-13 01:00N 69°39' E 018°57'0 0.0
2018-May-13 00:30N 69°39' E 018°57'0 0.0
2018-May-13 00:00N 69°39' E 018°58'0 0.0
2018-May-12 23:30N 69°39' E 018°58'0 0.0
2018-May-12 23:00N 69°39' E 018°58'0 0.0
2018-May-12 22:30N 69°39' E 018°57'0 0.0
2018-May-12 22:00N 69°39' E 018°58'0 0.0
2018-May-12 21:30N 69°39' E 018°58'0 0.0
2018-May-12 21:00N 69°39' E 018°58'0 0.0
2018-May-12 20:30N 69°39' E 018°57'0 0.0
2018-May-12 20:00N 69°39' E 018°58'0 0.0
2018-May-12 19:30N 69°39' E 018°57'0 0.0
2018-May-12 19:00N 69°39' E 018°57'0 0.0
2018-May-12 18:30N 69°39' E 018°57'0 0.0
2018-May-12 18:00N 69°39' E 018°58'0 0.0
2018-May-12 17:30N 69°39' E 018°57'0 0.0
2018-May-12 17:00N 69°39' E 018°58'0 0.0
2018-May-12 16:30N 69°39' E 018°57'0 0.0
2018-May-12 16:00N 69°39' E 018°58'0 0.0
2018-May-12 15:30N 69°39' E 018°58'0 0.0
2018-May-12 15:00N 69°39' E 018°58'0 0.0
2018-May-12 14:30N 69°39' E 018°57'0 0.0
2018-May-12 14:00N 69°39' E 018°57'0 0.0
2018-May-12 13:30N 69°39' E 018°57'0 0.0
2018-May-12 13:00N 69°39' E 018°58'0 0.0
2018-May-12 12:28N 69°39' E 018°57'0 0.0
2018-May-12 12:00N 69°39' E 018°57'0 0.0
2018-May-12 11:30N 69°39' E 018°57'0 0.0
2018-May-12 11:00N 69°39' E 018°57'0 0.0
2018-May-12 10:29N 69°39' E 018°57'0 0.0
2018-May-12 10:00N 69°39' E 018°58'0 0.0
2018-May-12 09:28N 69°39' E 018°58'0 0.0
2018-May-12 09:00N 69°39' E 018°57'0 0.0
2018-May-12 08:30N 69°39' E 018°58'0 0.0
2018-May-12 08:00N 69°39' E 018°58'0 0.0
2018-May-12 07:30N 69°39' E 018°57'0 0.0
2018-May-12 07:00N 69°39' E 018°58'0 0.0
2018-May-12 06:30N 69°39' E 018°58'0 0.0
2018-May-12 06:00N 69°39' E 018°58'0 0.0
2018-May-12 05:30N 69°39' E 018°57'0 0.0
2018-May-12 05:00N 69°39' E 018°58'0 0.0
2018-May-12 04:30N 69°39' E 018°57'0 0.0
2018-May-12 04:00N 69°39' E 018°58'0 0.0
2018-May-12 03:30N 69°39' E 018°57'0 0.0
2018-May-12 02:59N 69°39' E 018°58'0 0.0
2018-May-12 02:30N 69°39' E 018°57'0 0.0
2018-May-12 02:00N 69°39' E 018°57'0 0.0
2018-May-12 01:30N 69°39' E 018°57'0 0.0
2018-May-12 01:00N 69°39' E 018°57'0 0.0
2018-May-12 00:30N 69°39' E 018°57'0 0.0
2018-May-11 23:58N 69°39' E 018°58'0 0.0
2018-May-11 23:30N 69°39' E 018°57'0 0.0
2018-May-11 23:00N 69°39' E 018°57'0 0.0
2018-May-11 22:30N 69°39' E 018°57'0 0.0
2018-May-11 22:00N 69°39' E 018°58'0 0.0
2018-May-11 21:28N 69°39' E 018°58'0 0.0
2018-May-11 21:00N 69°39' E 018°57'0 0.0
2018-May-11 20:30N 69°39' E 018°57'0 0.0
2018-May-11 20:00N 69°39' E 018°58'0 0.0
2018-May-11 19:30N 69°39' E 018°57'0 0.0
2018-May-11 19:00N 69°39' E 018°57'0 0.0
2018-May-11 18:30N 69°39' E 018°57'0 0.0
2018-May-11 18:00N 69°39' E 018°57'0 0.0
2018-May-11 17:30N 69°39' E 018°57'0 0.0
2018-May-11 17:00N 69°39' E 018°57'0 0.0
2018-May-11 16:30N 69°39' E 018°57'0 0.0
2018-May-11 16:00N 69°39' E 018°57'0 0.0
2018-May-11 15:30N 69°39' E 018°58'0 0.0
2018-May-11 15:00N 69°39' E 018°57'0 0.0
2018-May-11 14:30N 69°39' E 018°58'0 0.0
2018-May-11 14:00N 69°39' E 018°58'0 0.0
2018-May-11 13:30N 69°39' E 018°58'0 0.0
2018-May-11 13:00N 69°39' E 018°58'0 0.0
2018-May-11 12:30N 69°39' E 018°58'0 0.0
2018-May-11 11:58N 69°39' E 018°57'0 0.0
2018-May-11 11:30N 69°39' E 018°57'0 0.0
2018-May-11 11:00N 69°39' E 018°57'0 0.0
2018-May-11 10:30N 69°39' E 018°57'0 0.0
2018-May-11 09:59N 69°39' E 018°58'0 0.0
2018-May-11 09:30N 69°39' E 018°57'0 0.0
2018-May-11 09:00N 69°39' E 018°57'0 0.0
2018-May-11 08:26N 69°39' E 018°57'0 0.0
2018-May-11 08:00N 69°39' E 018°57'3 5.5
2018-May-11 07:30N 69°41' E 019°02'1 2.4
2018-May-11 07:00N 69°42' E 019°04'0 0.0
2018-May-11 06:30N 69°42' E 019°04'1 2.4
2018-May-11 06:00N 69°43' E 019°05'4 7.4
2018-May-11 05:29N 69°46' E 019°12'4 8.1
2018-May-11 05:00N 69°48' E 019°22'4 8.2
2018-May-11 04:29N 69°49' E 019°33'4 8.4
2018-May-11 03:59N 69°51' E 019°44'4 8.2
2018-May-11 03:30N 69°53' E 019°53'4 7.8
2018-May-11 03:00N 69°56' E 020°02'4 8.0
2018-May-11 02:30N 69°58' E 020°11'4 7.9
2018-May-11 01:59N 70°00' E 020°22'4 7.8
2018-May-11 01:30N 70°01' E 020°33'4 7.5
2018-May-11 01:00N 70°02' E 020°43'  

Dump ship's entire track history